Open Full Screen Window  High Contrast Mode
Wind Gusting 18 knots
15
November 27, 2014 7:10 PM CST
Weather Information
Wind Direction
  150 °
Wind Speed
  15 kt (17 mph)
Wind Gust
  18 kt (21 mph)
Altimeter
30.13 in
Visibility
10 SM
Temperature
-12° C
10° F
Dewpoint
-15° C
F
Humidity
79%
1hr Rain Fall
00.00 in.
24hr Rain Fall
00.00 in.
Sky Condition
Overcast @ 9,000 ft
Broken @ 7,000 ft
Few @ 4,600 ft
VFR

METAR KMDS 280110Z AUTO 15015G18KT 10SM FEW046 BKN070 OVC090 M12/M15 A3013 RMK AO2

*Background is not an actual portrayal of the airport.